createdAt,value
2022-08-10T00:00:56.321Z,27.68
2022-08-10T00:05:58.068Z,27.76
2022-08-10T00:11:00.100Z,27.68
2022-08-10T00:16:05.481Z,27.71
2022-08-10T00:21:08.707Z,27.83
2022-08-10T00:26:10.763Z,27.73
2022-08-10T00:31:12.847Z,27.70
2022-08-10T00:36:14.865Z,27.75
2022-08-10T00:41:16.796Z,27.70
2022-08-10T00:46:18.557Z,27.77
2022-08-10T00:51:20.564Z,27.75
2022-08-10T00:57:15.154Z,27.66
2022-08-10T01:02:10.728Z,27.77
2022-08-10T01:07:51.594Z,27.74
2022-08-10T01:13:33.721Z,27.76
2022-08-10T01:18:58.510Z,27.73
2022-08-10T01:24:17.832Z,27.72
2022-08-10T01:29:42.393Z,27.61
2022-08-10T01:34:55.625Z,27.67
2022-08-10T01:40:00.356Z,27.67
2022-08-10T01:45:05.508Z,27.75
2022-08-10T01:50:14.109Z,27.65
2022-08-10T01:55:17.854Z,27.68
2022-08-10T02:00:20.269Z,27.68
2022-08-10T02:05:25.168Z,27.61
2022-08-10T02:10:29.467Z,27.64
2022-08-10T02:15:34.001Z,27.65
2022-08-10T02:20:43.917Z,27.67
2022-08-10T02:25:48.115Z,27.64
2022-08-10T02:30:53.439Z,27.68
2022-08-10T02:35:57.508Z,27.68
2022-08-10T02:45:13.649Z,27.55
2022-08-10T02:46:45.482Z,27.61
2022-08-10T02:52:11.802Z,27.68
2022-08-10T02:57:23.267Z,27.62
2022-08-10T03:02:39.648Z,27.58
2022-08-10T03:07:52.105Z,27.67
2022-08-10T03:12:59.758Z,27.61
2022-08-10T03:18:03.207Z,27.62
2022-08-10T03:23:07.729Z,27.57
2022-08-10T03:28:11.263Z,27.57
2022-08-10T03:33:22.657Z,27.53
2022-08-10T03:38:24.803Z,27.59
2022-08-10T03:43:27.715Z,27.53
2022-08-10T03:48:47.216Z,27.53
2022-08-10T03:54:04.974Z,27.51
2022-08-10T03:59:11.436Z,27.51
2022-08-10T04:04:17.819Z,27.50
2022-08-10T04:09:42.831Z,27.45
2022-08-10T04:14:52.439Z,27.50
2022-08-10T04:19:58.290Z,27.47
2022-08-10T04:25:05.351Z,27.47
2022-08-10T04:30:08.172Z,27.42
2022-08-10T04:35:11.310Z,27.41
2022-08-10T04:40:29.000Z,27.38
2022-08-10T04:45:47.806Z,27.38
2022-08-10T04:50:53.742Z,27.40
2022-08-10T04:55:55.718Z,27.38
2022-08-10T05:00:57.934Z,27.37
2022-08-10T05:06:00.076Z,27.44
2022-08-10T05:11:03.589Z,27.36
2022-08-10T05:16:05.701Z,27.38
2022-08-10T05:21:07.860Z,27.43
2022-08-10T05:26:09.986Z,27.43
2022-08-10T05:31:12.286Z,27.41
2022-08-10T05:36:21.414Z,27.52
2022-08-10T05:41:23.816Z,27.54
2022-08-10T05:46:26.075Z,27.54
2022-08-10T05:51:29.758Z,27.56
2022-08-10T05:56:56.611Z,27.52
2022-08-10T06:02:31.477Z,27.46
2022-08-10T06:07:21.801Z,27.56
2022-08-10T06:12:35.192Z,27.64
2022-08-10T06:18:01.616Z,27.61
2022-08-10T06:23:04.886Z,27.65
2022-08-10T06:28:09.317Z,27.71
2022-08-10T06:33:12.924Z,27.72
2022-08-10T06:38:17.075Z,27.73
2022-08-10T06:43:22.642Z,27.70
2022-08-10T06:48:35.012Z,27.72
2022-08-10T06:53:53.192Z,27.62
2022-08-10T06:59:03.893Z,27.66
2022-08-10T07:04:11.543Z,27.50
2022-08-10T07:09:15.842Z,27.57
2022-08-10T07:14:19.027Z,27.60
2022-08-10T07:19:22.257Z,27.58
2022-08-10T07:24:26.308Z,27.60
2022-08-10T07:29:53.472Z,27.55
2022-08-10T07:34:55.369Z,27.66
2022-08-10T07:40:03.430Z,27.71
2022-08-10T07:45:07.099Z,27.64
2022-08-10T07:50:12.335Z,27.56
2022-08-10T07:55:18.703Z,27.65
2022-08-10T08:00:21.620Z,27.56
2022-08-10T08:05:57.601Z,27.51
2022-08-10T08:10:49.350Z,27.66
2022-08-10T08:16:18.014Z,27.71
2022-08-10T08:24:10.785Z,27.69
2022-08-10T08:26:39.107Z,27.70
2022-08-10T08:31:54.281Z,27.68
2022-08-10T08:37:05.689Z,27.73
2022-08-10T08:42:10.325Z,27.73
2022-08-10T08:48:04.325Z,27.71
2022-08-10T08:52:59.662Z,27.71
2022-08-10T08:58:29.382Z,27.71
2022-08-10T09:03:46.211Z,27.73
2022-08-10T09:09:33.645Z,27.74
2022-08-10T09:14:49.078Z,27.77
2022-08-10T09:20:19.598Z,27.75
2022-08-10T09:25:30.587Z,27.73
2022-08-10T09:30:52.428Z,27.74
2022-08-10T09:36:32.861Z,27.76
2022-08-10T09:41:42.153Z,27.80
2022-08-10T09:47:08.180Z,27.72
2022-08-10T09:52:29.204Z,27.75
2022-08-10T09:58:02.104Z,27.81
2022-08-10T10:03:47.337Z,27.73
2022-08-10T10:08:58.322Z,27.80
2022-08-10T10:14:26.034Z,27.87
2022-08-10T10:20:01.134Z,27.88
2022-08-10T10:25:50.021Z,27.82
2022-08-10T10:31:27.828Z,27.91
2022-08-10T10:36:31.150Z,27.96
2022-08-10T10:41:56.508Z,27.92
2022-08-10T10:47:06.893Z,27.89
2022-08-10T10:52:41.172Z,27.91
2022-08-10T10:57:59.434Z,27.84
2022-08-10T11:03:28.976Z,27.84
2022-08-10T11:08:43.524Z,27.84
2022-08-10T11:14:24.714Z,27.84
2022-08-10T11:20:00.464Z,27.89
2022-08-10T11:25:19.948Z,27.88
2022-08-10T11:30:31.625Z,27.84
2022-08-10T11:35:54.073Z,27.85
2022-08-10T11:41:05.617Z,27.94
2022-08-10T11:46:36.701Z,27.87
2022-08-10T11:51:57.580Z,27.88
2022-08-10T11:57:02.511Z,27.95
2022-08-10T12:02:09.706Z,27.93
2022-08-10T12:08:54.970Z,27.92
2022-08-10T12:12:41.354Z,27.92
2022-08-10T12:17:48.838Z,27.96
2022-08-10T12:22:57.218Z,27.98
2022-08-10T12:28:09.512Z,27.96
2022-08-10T12:33:26.959Z,27.90
2022-08-10T12:38:41.081Z,28.00
2022-08-10T12:44:05.051Z,27.90
2022-08-10T12:49:20.223Z,27.95
2022-08-10T12:54:32.527Z,28.02
2022-08-10T12:59:43.282Z,28.00
2022-08-10T13:04:49.645Z,27.89
2022-08-10T13:09:55.667Z,28.02
2022-08-10T13:15:45.101Z,27.88
2022-08-10T13:20:35.588Z,27.96
2022-08-10T13:29:14.068Z,28.04
2022-08-10T13:34:42.924Z,27.95
2022-08-10T13:39:57.907Z,28.03
2022-08-10T13:45:17.529Z,28.13
2022-08-10T13:50:33.449Z,28.07
2022-08-10T13:55:53.835Z,28.15
2022-08-10T14:01:00.315Z,28.10
2022-08-10T14:06:04.477Z,27.98
2022-08-10T14:11:12.451Z,28.04
2022-08-10T14:16:15.848Z,28.00
2022-08-10T14:21:17.990Z,28.10
2022-08-10T14:26:23.406Z,28.08
2022-08-10T14:31:31.383Z,28.06
2022-08-10T14:36:59.413Z,28.16
2022-08-10T14:42:16.760Z,28.18
2022-08-10T14:47:54.231Z,28.02
2022-08-10T14:52:53.087Z,28.03
2022-08-10T14:58:19.073Z,27.98
2022-08-10T15:03:59.565Z,28.06
2022-08-10T15:08:42.760Z,28.06
2022-08-10T15:14:14.740Z,28.10
2022-08-10T15:20:01.549Z,28.13
2022-08-10T15:24:56.183Z,28.07
2022-08-10T15:29:58.961Z,28.08
2022-08-10T15:35:20.721Z,28.15
2022-08-10T15:40:35.959Z,28.36
2022-08-10T15:45:55.947Z,28.13
2022-08-10T15:51:10.240Z,28.01
2022-08-10T15:56:28.190Z,28.00
2022-08-10T16:02:14.481Z,27.97
2022-08-10T16:07:12.418Z,28.06
2022-08-10T16:12:39.269Z,28.14
2022-08-10T16:17:57.580Z,28.29
2022-08-10T16:23:03.786Z,28.27
2022-08-10T16:28:09.879Z,28.33
2022-08-10T16:33:53.420Z,28.45
2022-08-10T16:38:54.248Z,28.22
2022-08-10T16:43:59.633Z,28.31
2022-08-10T16:49:02.755Z,28.52
2022-08-10T16:54:07.473Z,28.53
2022-08-10T16:59:10.347Z,28.51
2022-08-10T17:04:22.159Z,28.42
2022-08-10T17:09:30.594Z,28.50
2022-08-10T17:14:32.464Z,28.40
2022-08-10T17:19:45.088Z,28.49
2022-08-10T17:24:53.106Z,28.21
2022-08-10T17:30:03.796Z,28.26
2022-08-10T17:35:11.670Z,28.16
2022-08-10T17:40:22.718Z,28.27
2022-08-10T17:45:48.683Z,28.37
2022-08-10T17:50:53.167Z,28.21
2022-08-10T17:55:58.154Z,28.02
2022-08-10T18:01:38.909Z,28.02
2022-08-10T18:06:25.843Z,27.92
2022-08-10T18:11:31.352Z,28.00
2022-08-10T18:16:34.657Z,28.31
2022-08-10T18:21:43.862Z,28.54
2022-08-10T18:26:51.253Z,28.49
2022-08-10T18:32:00.074Z,28.42
2022-08-10T18:37:05.640Z,28.54
2022-08-10T18:42:15.245Z,28.53
2022-08-10T18:47:25.749Z,28.53
2022-08-10T18:52:31.999Z,28.49
2022-08-10T18:58:04.467Z,28.46
2022-08-10T19:03:53.722Z,28.41
2022-08-10T19:09:45.996Z,28.44
2022-08-10T19:14:51.746Z,28.43
2022-08-10T19:20:08.870Z,28.34
2022-08-10T19:26:40.699Z,28.23
2022-08-10T19:31:15.361Z,28.27
2022-08-10T19:36:35.850Z,28.26
2022-08-10T19:41:54.370Z,28.25
2022-08-10T19:47:03.299Z,28.23
2022-08-10T19:52:30.533Z,28.18
2022-08-10T19:57:44.652Z,28.23
2022-08-10T20:03:23.115Z,28.20
2022-08-10T20:08:31.829Z,28.24
2022-08-10T20:14:22.236Z,28.27
2022-08-10T20:19:52.492Z,28.17
2022-08-10T20:25:20.881Z,28.13
2022-08-10T20:30:27.417Z,28.23
2022-08-10T20:35:43.869Z,28.28
2022-08-10T20:41:14.134Z,28.14
2022-08-10T20:46:24.654Z,28.13
2022-08-10T20:51:58.635Z,28.24
2022-08-10T20:58:04.053Z,28.25
2022-08-10T21:02:35.487Z,28.35
2022-08-10T21:08:01.811Z,28.30
2022-08-10T21:13:43.145Z,28.29
2022-08-10T21:19:08.962Z,28.29
2022-08-10T21:24:28.609Z,28.31
2022-08-10T21:29:56.094Z,28.30
2022-08-10T21:35:10.166Z,28.21
2022-08-10T21:41:18.211Z,28.15
2022-08-10T21:47:02.631Z,28.10
2022-08-10T21:52:33.480Z,28.17
2022-08-10T21:58:23.037Z,28.17
2022-08-10T22:03:48.139Z,28.09
2022-08-10T22:09:22.120Z,28.15
2022-08-10T22:14:48.431Z,28.17
2022-08-10T22:20:49.582Z,28.24
2022-08-10T22:26:35.499Z,28.12
2022-08-10T22:32:22.223Z,28.11
2022-08-10T22:38:07.634Z,28.15
2022-08-10T22:43:45.196Z,28.17
2022-08-10T22:49:01.039Z,28.17
2022-08-10T22:54:31.821Z,28.21
2022-08-10T22:59:34.075Z,28.16
2022-08-10T23:04:45.330Z,28.12
2022-08-10T23:09:57.670Z,28.10
2022-08-10T23:15:20.997Z,28.11
2022-08-10T23:20:24.593Z,28.12
2022-08-10T23:25:33.019Z,28.10
2022-08-10T23:30:37.483Z,28.18
2022-08-10T23:36:30.368Z,28.27
2022-08-10T23:41:24.999Z,28.21
2022-08-10T23:46:30.792Z,28.18
2022-08-10T23:51:38.729Z,28.15
2022-08-10T23:57:01.496Z,28.09
